sensor_id;sensor_type;location;lat;lon;timestamp;temperature;humidity
42141;DHT22;27809;51.864;5.646;2022-09-09T00:00:40;14.80;99.90
42141;DHT22;27809;51.864;5.646;2022-09-09T00:05:45;14.80;99.90
42141;DHT22;27809;51.864;5.646;2022-09-09T00:08:20;14.80;99.90
42141;DHT22;27809;51.864;5.646;2022-09-09T00:10:54;14.80;99.90
42141;DHT22;27809;51.864;5.646;2022-09-09T00:13:48;14.80;99.90
42141;DHT22;27809;51.864;5.646;2022-09-09T00:16:27;14.80;99.90
42141;DHT22;27809;51.864;5.646;2022-09-09T00:21:57;14.60;99.90
42141;DHT22;27809;51.864;5.646;2022-09-09T00:24:29;14.60;99.90
42141;DHT22;27809;51.864;5.646;2022-09-09T00:27:11;14.60;99.90
42141;DHT22;27809;51.864;5.646;2022-09-09T00:29:51;14.50;99.90
42141;DHT22;27809;51.864;5.646;2022-09-09T00:32:20;14.50;99.90
42141;DHT22;27809;51.864;5.646;2022-09-09T00:34:54;14.40;99.90
42141;DHT22;27809;51.864;5.646;2022-09-09T00:37:22;14.50;99.90
42141;DHT22;27809;51.864;5.646;2022-09-09T00:39:52;14.40;99.90
42141;DHT22;27809;51.864;5.646;2022-09-09T00:42:41;14.20;99.90
42141;DHT22;27809;51.864;5.646;2022-09-09T00:48:11;14.20;99.90
42141;DHT22;27809;51.864;5.646;2022-09-09T00:53:55;13.90;99.90
42141;DHT22;27809;51.864;5.646;2022-09-09T00:56:30;14.10;99.90
42141;DHT22;27809;51.864;5.646;2022-09-09T00:59:12;14.00;99.90
42141;DHT22;27809;51.864;5.646;2022-09-09T01:01:41;14.00;99.90
42141;DHT22;27809;51.864;5.646;2022-09-09T01:04:13;13.90;99.90
42141;DHT22;27809;51.864;5.646;2022-09-09T01:06:41;13.80;99.90
42141;DHT22;27809;51.864;5.646;2022-09-09T01:09:21;13.90;99.90
42141;DHT22;27809;51.864;5.646;2022-09-09T01:17:08;13.70;99.90
42141;DHT22;27809;51.864;5.646;2022-09-09T01:27:29;13.50;99.90
42141;DHT22;27809;51.864;5.646;2022-09-09T01:29:55;13.50;99.90
42141;DHT22;27809;51.864;5.646;2022-09-09T01:32:41;13.70;99.90
42141;DHT22;27809;51.864;5.646;2022-09-09T01:37:57;13.50;99.90
42141;DHT22;27809;51.864;5.646;2022-09-09T01:40:24;13.50;99.90
42141;DHT22;27809;51.864;5.646;2022-09-09T01:42:50;13.50;99.90
42141;DHT22;27809;51.864;5.646;2022-09-09T01:45:15;13.50;99.90
42141;DHT22;27809;51.864;5.646;2022-09-09T01:47:41;13.60;99.90
42141;DHT22;27809;51.864;5.646;2022-09-09T01:50:08;13.60;99.90
42141;DHT22;27809;51.864;5.646;2022-09-09T01:52:37;13.40;99.90
42141;DHT22;27809;51.864;5.646;2022-09-09T01:55:03;13.40;99.90
42141;DHT22;27809;51.864;5.646;2022-09-09T01:57:47;13.40;99.90
42141;DHT22;27809;51.864;5.646;2022-09-09T02:00:15;13.40;99.90
42141;DHT22;27809;51.864;5.646;2022-09-09T02:07:57;13.40;99.90
42141;DHT22;27809;51.864;5.646;2022-09-09T02:10:35;13.30;99.90
42141;DHT22;27809;51.864;5.646;2022-09-09T02:13:08;13.20;99.90
42141;DHT22;27809;51.864;5.646;2022-09-09T02:16:12;13.20;99.90
42141;DHT22;27809;51.864;5.646;2022-09-09T02:18:51;13.30;99.90
42141;DHT22;27809;51.864;5.646;2022-09-09T02:21:19;13.30;99.90
42141;DHT22;27809;51.864;5.646;2022-09-09T02:23:46;13.20;99.90
42141;DHT22;27809;51.864;5.646;2022-09-09T02:26:14;13.30;99.90
42141;DHT22;27809;51.864;5.646;2022-09-09T02:28:46;13.40;99.90
42141;DHT22;27809;51.864;5.646;2022-09-09T02:31:14;13.40;99.90
42141;DHT22;27809;51.864;5.646;2022-09-09T02:33:46;13.40;99.90
42141;DHT22;27809;51.864;5.646;2022-09-09T02:36:15;13.50;99.90
42141;DHT22;27809;51.864;5.646;2022-09-09T02:38:45;13.40;99.90
42141;DHT22;27809;51.864;5.646;2022-09-09T02:41:31;13.40;99.90
42141;DHT22;27809;51.864;5.646;2022-09-09T02:43:57;13.30;99.90
42141;DHT22;27809;51.864;5.646;2022-09-09T02:49:49;13.40;99.90
42141;DHT22;27809;51.864;5.646;2022-09-09T02:55:23;13.20;99.90
42141;DHT22;27809;51.864;5.646;2022-09-09T02:57:51;13.20;99.90
42141;DHT22;27809;51.864;5.646;2022-09-09T03:00:23;13.00;99.90
42141;DHT22;27809;51.864;5.646;2022-09-09T03:02:49;13.20;99.90
42141;DHT22;27809;51.864;5.646;2022-09-09T03:05:16;13.20;99.90
42141;DHT22;27809;51.864;5.646;2022-09-09T03:07:42;13.20;99.90
42141;DHT22;27809;51.864;5.646;2022-09-09T03:10:08;13.20;99.90
42141;DHT22;27809;51.864;5.646;2022-09-09T03:12:33;13.10;99.90
42141;DHT22;27809;51.864;5.646;2022-09-09T03:14:59;13.20;99.90
42141;DHT22;27809;51.864;5.646;2022-09-09T03:17:24;13.10;99.90
42141;DHT22;27809;51.864;5.646;2022-09-09T03:19:50;13.30;99.90
42141;DHT22;27809;51.864;5.646;2022-09-09T03:22:17;13.10;99.90
42141;DHT22;27809;51.864;5.646;2022-09-09T03:24:43;13.20;99.90
42141;DHT22;27809;51.864;5.646;2022-09-09T03:27:08;13.20;99.90
42141;DHT22;27809;51.864;5.646;2022-09-09T03:29:34;13.20;99.90
42141;DHT22;27809;51.864;5.646;2022-09-09T03:31:59;13.30;99.90
42141;DHT22;27809;51.864;5.646;2022-09-09T03:34:25;13.30;99.90
42141;DHT22;27809;51.864;5.646;2022-09-09T03:36:50;13.30;99.90
42141;DHT22;27809;51.864;5.646;2022-09-09T03:39:16;13.50;99.90
42141;DHT22;27809;51.864;5.646;2022-09-09T03:41:42;13.60;99.90
42141;DHT22;27809;51.864;5.646;2022-09-09T03:44:07;13.60;99.90
42141;DHT22;27809;51.864;5.646;2022-09-09T03:46:33;13.60;99.90
42141;DHT22;27809;51.864;5.646;2022-09-09T03:48:59;13.60;99.90
42141;DHT22;27809;51.864;5.646;2022-09-09T03:51:24;13.60;99.90
42141;DHT22;27809;51.864;5.646;2022-09-09T03:53:50;13.60;99.90
42141;DHT22;27809;51.864;5.646;2022-09-09T03:56:15;13.70;99.90
42141;DHT22;27809;51.864;5.646;2022-09-09T03:58:41;13.70;99.90
42141;DHT22;27809;51.864;5.646;2022-09-09T04:01:11;13.60;99.90
42141;DHT22;27809;51.864;5.646;2022-09-09T04:03:39;13.70;99.90
42141;DHT22;27809;51.864;5.646;2022-09-09T04:06:06;13.70;99.90
42141;DHT22;27809;51.864;5.646;2022-09-09T04:08:33;13.70;99.90
42141;DHT22;27809;51.864;5.646;2022-09-09T04:10:59;13.80;99.90
42141;DHT22;27809;51.864;5.646;2022-09-09T04:13:25;13.70;99.90
42141;DHT22;27809;51.864;5.646;2022-09-09T04:15:56;13.80;99.90
42141;DHT22;27809;51.864;5.646;2022-09-09T04:18:23;13.80;99.90
42141;DHT22;27809;51.864;5.646;2022-09-09T04:20:50;13.90;99.90
42141;DHT22;27809;51.864;5.646;2022-09-09T04:23:17;14.00;99.90
42141;DHT22;27809;51.864;5.646;2022-09-09T04:25:51;13.90;99.90
42141;DHT22;27809;51.864;5.646;2022-09-09T04:28:18;13.90;99.90
42141;DHT22;27809;51.864;5.646;2022-09-09T04:30:45;14.00;99.90
42141;DHT22;27809;51.864;5.646;2022-09-09T04:33:12;13.90;99.90
42141;DHT22;27809;51.864;5.646;2022-09-09T04:35:38;14.00;99.90
42141;DHT22;27809;51.864;5.646;2022-09-09T04:38:05;13.90;99.90
42141;DHT22;27809;51.864;5.646;2022-09-09T04:40:32;14.00;99.90
42141;DHT22;27809;51.864;5.646;2022-09-09T04:43:00;14.00;99.90
42141;DHT22;27809;51.864;5.646;2022-09-09T04:45:26;14.00;99.90
42141;DHT22;27809;51.864;5.646;2022-09-09T04:47:52;14.00;99.90
42141;DHT22;27809;51.864;5.646;2022-09-09T04:50:18;14.00;99.90
42141;DHT22;27809;51.864;5.646;2022-09-09T04:52:44;14.00;99.90
42141;DHT22;27809;51.864;5.646;2022-09-09T04:55:10;14.00;99.90
42141;DHT22;27809;51.864;5.646;2022-09-09T04:57:38;14.00;99.90
42141;DHT22;27809;51.864;5.646;2022-09-09T05:00:04;14.10;99.90
42141;DHT22;27809;51.864;5.646;2022-09-09T05:02:30;14.00;99.90
42141;DHT22;27809;51.864;5.646;2022-09-09T05:04:55;14.00;99.90
42141;DHT22;27809;51.864;5.646;2022-09-09T05:07:21;14.00;99.90
42141;DHT22;27809;51.864;5.646;2022-09-09T05:09:46;14.00;99.90
42141;DHT22;27809;51.864;5.646;2022-09-09T05:12:15;14.00;99.90
42141;DHT22;27809;51.864;5.646;2022-09-09T05:14:42;14.00;99.90
42141;DHT22;27809;51.864;5.646;2022-09-09T05:17:07;13.90;99.90
42141;DHT22;27809;51.864;5.646;2022-09-09T05:19:33;14.00;99.90
42141;DHT22;27809;51.864;5.646;2022-09-09T05:21:59;14.00;99.90
42141;DHT22;27809;51.864;5.646;2022-09-09T05:24:26;14.00;99.90
42141;DHT22;27809;51.864;5.646;2022-09-09T05:26:52;14.00;99.90
42141;DHT22;27809;51.864;5.646;2022-09-09T05:29:17;13.90;99.90
42141;DHT22;27809;51.864;5.646;2022-09-09T05:31:45;14.00;99.90
42141;DHT22;27809;51.864;5.646;2022-09-09T05:34:10;14.10;99.90
42141;DHT22;27809;51.864;5.646;2022-09-09T05:36:37;14.00;99.90
42141;DHT22;27809;51.864;5.646;2022-09-09T05:39:03;14.00;99.90
42141;DHT22;27809;51.864;5.646;2022-09-09T05:41:28;14.10;99.90
42141;DHT22;27809;51.864;5.646;2022-09-09T05:43:54;14.10;99.90
42141;DHT22;27809;51.864;5.646;2022-09-09T05:46:23;14.20;99.90
42141;DHT22;27809;51.864;5.646;2022-09-09T05:48:49;14.30;99.90
42141;DHT22;27809;51.864;5.646;2022-09-09T05:51:21;14.30;99.90
42141;DHT22;27809;51.864;5.646;2022-09-09T05:53:48;14.40;99.90
42141;DHT22;27809;51.864;5.646;2022-09-09T05:56:18;14.40;99.90
42141;DHT22;27809;51.864;5.646;2022-09-09T05:58:45;14.40;99.90
42141;DHT22;27809;51.864;5.646;2022-09-09T06:01:26;14.40;99.90
42141;DHT22;27809;51.864;5.646;2022-09-09T06:03:52;14.50;99.90
42141;DHT22;27809;51.864;5.646;2022-09-09T06:06:24;14.60;99.90
42141;DHT22;27809;51.864;5.646;2022-09-09T06:08:51;14.50;99.90
42141;DHT22;27809;51.864;5.646;2022-09-09T06:11:23;14.50;99.90
42141;DHT22;27809;51.864;5.646;2022-09-09T06:13:49;14.50;99.90
42141;DHT22;27809;51.864;5.646;2022-09-09T06:16:19;14.40;99.90
42141;DHT22;27809;51.864;5.646;2022-09-09T06:18:45;14.60;99.90
42141;DHT22;27809;51.864;5.646;2022-09-09T06:23:42;14.60;99.90
42141;DHT22;27809;51.864;5.646;2022-09-09T06:26:14;14.70;99.90
42141;DHT22;27809;51.864;5.646;2022-09-09T06:28:40;14.60;99.90
42141;DHT22;27809;51.864;5.646;2022-09-09T06:31:09;14.70;99.90
42141;DHT22;27809;51.864;5.646;2022-09-09T06:33:37;14.70;99.90
42141;DHT22;27809;51.864;5.646;2022-09-09T06:36:05;14.60;99.90
42141;DHT22;27809;51.864;5.646;2022-09-09T06:38:31;14.70;99.90
42141;DHT22;27809;51.864;5.646;2022-09-09T06:41:00;14.70;99.90
42141;DHT22;27809;51.864;5.646;2022-09-09T06:43:26;14.70;99.90
42141;DHT22;27809;51.864;5.646;2022-09-09T06:45:58;14.80;99.90
42141;DHT22;27809;51.864;5.646;2022-09-09T06:48:25;14.90;99.90
42141;DHT22;27809;51.864;5.646;2022-09-09T06:50:59;14.90;99.90
42141;DHT22;27809;51.864;5.646;2022-09-09T06:53:25;15.00;99.90
42141;DHT22;27809;51.864;5.646;2022-09-09T06:55:52;15.00;99.90
42141;DHT22;27809;51.864;5.646;2022-09-09T06:58:17;15.10;99.90
42141;DHT22;27809;51.864;5.646;2022-09-09T07:00:43;15.20;99.90
42141;DHT22;27809;51.864;5.646;2022-09-09T07:03:10;15.30;99.90
42141;DHT22;27809;51.864;5.646;2022-09-09T07:05:36;15.40;99.90
42141;DHT22;27809;51.864;5.646;2022-09-09T07:08:01;15.60;99.90
42141;DHT22;27809;51.864;5.646;2022-09-09T07:10:27;15.70;99.90
42141;DHT22;27809;51.864;5.646;2022-09-09T07:12:53;15.90;99.90
42141;DHT22;27809;51.864;5.646;2022-09-09T07:15:19;16.10;99.90
42141;DHT22;27809;51.864;5.646;2022-09-09T07:17:45;16.00;99.90
42141;DHT22;27809;51.864;5.646;2022-09-09T07:20:11;16.10;99.90
42141;DHT22;27809;51.864;5.646;2022-09-09T07:22:36;16.20;99.90
42141;DHT22;27809;51.864;5.646;2022-09-09T07:25:03;16.20;99.90
42141;DHT22;27809;51.864;5.646;2022-09-09T07:27:28;16.30;99.90
42141;DHT22;27809;51.864;5.646;2022-09-09T07:29:54;16.30;99.90
42141;DHT22;27809;51.864;5.646;2022-09-09T07:32:19;16.30;99.90
42141;DHT22;27809;51.864;5.646;2022-09-09T07:34:46;16.40;99.90
42141;DHT22;27809;51.864;5.646;2022-09-09T07:37:12;16.40;99.90
42141;DHT22;27809;51.864;5.646;2022-09-09T07:39:39;16.40;99.90
42141;DHT22;27809;51.864;5.646;2022-09-09T07:42:05;16.40;99.90
42141;DHT22;27809;51.864;5.646;2022-09-09T07:44:30;16.30;99.90
42141;DHT22;27809;51.864;5.646;2022-09-09T07:46:57;16.50;99.90
42141;DHT22;27809;51.864;5.646;2022-09-09T07:49:23;16.50;99.90
42141;DHT22;27809;51.864;5.646;2022-09-09T07:51:49;16.60;99.90
42141;DHT22;27809;51.864;5.646;2022-09-09T07:54:17;16.50;99.90
42141;DHT22;27809;51.864;5.646;2022-09-09T07:56:46;16.50;99.90
42141;DHT22;27809;51.864;5.646;2022-09-09T07:59:12;16.50;99.90
42141;DHT22;27809;51.864;5.646;2022-09-09T08:01:47;16.50;99.90
42141;DHT22;27809;51.864;5.646;2022-09-09T08:04:20;16.60;99.90
42141;DHT22;27809;51.864;5.646;2022-09-09T08:06:57;16.50;99.90
42141;DHT22;27809;51.864;5.646;2022-09-09T08:09:23;16.60;99.90
42141;DHT22;27809;51.864;5.646;2022-09-09T08:11:52;16.60;99.90
42141;DHT22;27809;51.864;5.646;2022-09-09T08:14:17;16.70;99.90
42141;DHT22;27809;51.864;5.646;2022-09-09T08:16:46;16.70;99.90
42141;DHT22;27809;51.864;5.646;2022-09-09T08:19:12;16.80;99.90
42141;DHT22;27809;51.864;5.646;2022-09-09T08:21:40;16.70;99.90
42141;DHT22;27809;51.864;5.646;2022-09-09T08:24:07;16.70;99.90
42141;DHT22;27809;51.864;5.646;2022-09-09T08:26:38;16.80;99.90
42141;DHT22;27809;51.864;5.646;2022-09-09T08:29:06;16.80;99.90
42141;DHT22;27809;51.864;5.646;2022-09-09T08:31:35;16.80;99.90
42141;DHT22;27809;51.864;5.646;2022-09-09T08:34:03;16.80;99.90
42141;DHT22;27809;51.864;5.646;2022-09-09T08:36:30;16.70;99.90
42141;DHT22;27809;51.864;5.646;2022-09-09T08:38:58;16.70;99.90
42141;DHT22;27809;51.864;5.646;2022-09-09T08:41:41;16.80;99.90
42141;DHT22;27809;51.864;5.646;2022-09-09T08:50:30;17.00;99.90
42141;DHT22;27809;51.864;5.646;2022-09-09T08:53:12;16.90;99.90
42141;DHT22;27809;51.864;5.646;2022-09-09T08:55:51;17.00;99.90
42141;DHT22;27809;51.864;5.646;2022-09-09T08:58:25;17.00;99.90
42141;DHT22;27809;51.864;5.646;2022-09-09T09:01:16;17.00;99.90
42141;DHT22;27809;51.864;5.646;2022-09-09T09:11:39;16.80;99.90
42141;DHT22;27809;51.864;5.646;2022-09-09T09:14:18;16.80;99.90
42141;DHT22;27809;51.864;5.646;2022-09-09T09:17:15;16.80;99.90
42141;DHT22;27809;51.864;5.646;2022-09-09T09:19:43;16.80;99.90
42141;DHT22;27809;51.864;5.646;2022-09-09T09:27:40;17.10;99.90
42141;DHT22;27809;51.864;5.646;2022-09-09T09:30:35;17.30;99.90
42141;DHT22;27809;51.864;5.646;2022-09-09T09:33:03;17.30;99.90
42141;DHT22;27809;51.864;5.646;2022-09-09T09:35:31;17.30;99.90
42141;DHT22;27809;51.864;5.646;2022-09-09T09:37:56;17.40;99.90
42141;DHT22;27809;51.864;5.646;2022-09-09T09:40:23;17.50;99.90
42141;DHT22;27809;51.864;5.646;2022-09-09T09:42:57;17.40;99.90
42141;DHT22;27809;51.864;5.646;2022-09-09T09:45:42;17.40;99.90
42141;DHT22;27809;51.864;5.646;2022-09-09T09:48:12;17.40;99.90
42141;DHT22;27809;51.864;5.646;2022-09-09T09:51:05;17.50;99.90
42141;DHT22;27809;51.864;5.646;2022-09-09T09:53:34;17.50;99.90
42141;DHT22;27809;51.864;5.646;2022-09-09T09:56:05;17.50;99.90
42141;DHT22;27809;51.864;5.646;2022-09-09T09:58:36;17.50;99.90
42141;DHT22;27809;51.864;5.646;2022-09-09T10:01:03;17.30;99.90
42141;DHT22;27809;51.864;5.646;2022-09-09T10:03:31;17.40;99.90
42141;DHT22;27809;51.864;5.646;2022-09-09T10:05:58;17.30;99.90
42141;DHT22;27809;51.864;5.646;2022-09-09T10:08:25;17.20;99.90
42141;DHT22;27809;51.864;5.646;2022-09-09T10:10:53;17.20;99.90
42141;DHT22;27809;51.864;5.646;2022-09-09T10:13:29;17.30;99.90
42141;DHT22;27809;51.864;5.646;2022-09-09T10:16:09;17.30;99.90
42141;DHT22;27809;51.864;5.646;2022-09-09T10:18:58;17.30;99.90
42141;DHT22;27809;51.864;5.646;2022-09-09T10:24:26;17.30;99.90
42141;DHT22;27809;51.864;5.646;2022-09-09T10:35:33;17.20;99.90
42141;DHT22;27809;51.864;5.646;2022-09-09T10:52:03;16.80;99.90
42141;DHT22;27809;51.864;5.646;2022-09-09T10:57:44;16.80;99.90
42141;DHT22;27809;51.864;5.646;2022-09-09T11:03:03;16.70;99.90
42141;DHT22;27809;51.864;5.646;2022-09-09T11:05:33;16.70;99.90
42141;DHT22;27809;51.864;5.646;2022-09-09T11:08:14;16.60;99.90
42141;DHT22;27809;51.864;5.646;2022-09-09T11:11:26;16.70;99.90
42141;DHT22;27809;51.864;5.646;2022-09-09T11:19:02;17.20;99.90
42141;DHT22;27809;51.864;5.646;2022-09-09T11:21:37;17.60;99.90
42141;DHT22;27809;51.864;5.646;2022-09-09T11:24:10;17.70;99.90
42141;DHT22;27809;51.864;5.646;2022-09-09T11:26:44;17.50;99.90
42141;DHT22;27809;51.864;5.646;2022-09-09T11:29:30;17.50;99.90
42141;DHT22;27809;51.864;5.646;2022-09-09T11:40:40;17.50;99.90
42141;DHT22;27809;51.864;5.646;2022-09-09T11:43:11;17.40;99.90
42141;DHT22;27809;51.864;5.646;2022-09-09T11:45:39;17.50;99.90
42141;DHT22;27809;51.864;5.646;2022-09-09T11:48:41;17.50;99.90
42141;DHT22;27809;51.864;5.646;2022-09-09T11:51:13;17.50;99.90
42141;DHT22;27809;51.864;5.646;2022-09-09T11:54:02;17.40;99.90
42141;DHT22;27809;51.864;5.646;2022-09-09T11:56:34;17.50;99.90
42141;DHT22;27809;51.864;5.646;2022-09-09T11:59:05;17.50;99.90
42141;DHT22;27809;51.864;5.646;2022-09-09T12:01:35;17.60;99.90
42141;DHT22;27809;51.864;5.646;2022-09-09T12:04:26;17.60;99.90
42141;DHT22;27809;51.864;5.646;2022-09-09T12:07:03;17.60;99.90
42141;DHT22;27809;51.864;5.646;2022-09-09T12:12:06;17.40;99.90
42141;DHT22;27809;51.864;5.646;2022-09-09T12:17:26;17.20;99.90
42141;DHT22;27809;51.864;5.646;2022-09-09T12:33:18;17.50;99.90
42141;DHT22;27809;51.864;5.646;2022-09-09T12:35:50;17.60;99.90
42141;DHT22;27809;51.864;5.646;2022-09-09T12:38:39;17.60;99.90
42141;DHT22;27809;51.864;5.646;2022-09-09T12:41:03;17.60;99.90
42141;DHT22;27809;51.864;5.646;2022-09-09T12:43:29;17.50;99.90
42141;DHT22;27809;51.864;5.646;2022-09-09T12:46:08;17.40;99.90
42141;DHT22;27809;51.864;5.646;2022-09-09T12:48:38;17.50;99.90
42141;DHT22;27809;51.864;5.646;2022-09-09T12:51:26;17.60;99.90
42141;DHT22;27809;51.864;5.646;2022-09-09T12:53:54;17.60;99.90
42141;DHT22;27809;51.864;5.646;2022-09-09T12:56:22;17.90;99.90
42141;DHT22;27809;51.864;5.646;2022-09-09T12:58:50;18.10;99.90
42141;DHT22;27809;51.864;5.646;2022-09-09T13:01:33;18.30;99.90
42141;DHT22;27809;51.864;5.646;2022-09-09T13:03:59;18.30;99.90
42141;DHT22;27809;51.864;5.646;2022-09-09T13:06:27;18.30;99.90
42141;DHT22;27809;51.864;5.646;2022-09-09T13:08:55;18.50;99.90
42141;DHT22;27809;51.864;5.646;2022-09-09T13:13:59;18.60;99.90
42141;DHT22;27809;51.864;5.646;2022-09-09T13:16:33;18.60;99.90
42141;DHT22;27809;51.864;5.646;2022-09-09T13:19:16;18.40;99.90
42141;DHT22;27809;51.864;5.646;2022-09-09T13:21:42;18.50;99.90
42141;DHT22;27809;51.864;5.646;2022-09-09T13:24:33;18.60;99.90
42141;DHT22;27809;51.864;5.646;2022-09-09T13:27:03;18.50;99.90
42141;DHT22;27809;51.864;5.646;2022-09-09T13:29:30;18.50;99.90
42141;DHT22;27809;51.864;5.646;2022-09-09T13:32:06;18.50;99.90
42141;DHT22;27809;51.864;5.646;2022-09-09T13:34:37;18.50;99.90
42141;DHT22;27809;51.864;5.646;2022-09-09T13:37:05;18.30;99.90
42141;DHT22;27809;51.864;5.646;2022-09-09T13:39:35;18.20;99.90
42141;DHT22;27809;51.864;5.646;2022-09-09T13:42:02;18.40;99.90
42141;DHT22;27809;51.864;5.646;2022-09-09T13:44:36;18.90;99.90
42141;DHT22;27809;51.864;5.646;2022-09-09T13:49:39;18.70;99.90
42141;DHT22;27809;51.864;5.646;2022-09-09T13:52:08;18.60;99.90
42141;DHT22;27809;51.864;5.646;2022-09-09T13:54:34;18.40;99.90
42141;DHT22;27809;51.864;5.646;2022-09-09T13:57:00;18.30;99.90
42141;DHT22;27809;51.864;5.646;2022-09-09T13:59:26;18.20;99.90
42141;DHT22;27809;51.864;5.646;2022-09-09T14:01:52;18.20;99.90
42141;DHT22;27809;51.864;5.646;2022-09-09T14:04:18;18.30;99.90
42141;DHT22;27809;51.864;5.646;2022-09-09T14:06:46;18.50;99.90
42141;DHT22;27809;51.864;5.646;2022-09-09T14:09:15;18.70;99.90
42141;DHT22;27809;51.864;5.646;2022-09-09T14:11:41;18.80;99.90
42141;DHT22;27809;51.864;5.646;2022-09-09T14:14:07;18.90;99.90
42141;DHT22;27809;51.864;5.646;2022-09-09T14:16:33;18.80;99.90
42141;DHT22;27809;51.864;5.646;2022-09-09T14:18:59;18.80;99.90
42141;DHT22;27809;51.864;5.646;2022-09-09T14:21:26;18.70;99.90
42141;DHT22;27809;51.864;5.646;2022-09-09T14:23:52;18.70;99.90
42141;DHT22;27809;51.864;5.646;2022-09-09T14:26:21;18.70;99.90
42141;DHT22;27809;51.864;5.646;2022-09-09T14:28:48;18.70;99.90
42141;DHT22;27809;51.864;5.646;2022-09-09T14:31:13;18.70;99.90
42141;DHT22;27809;51.864;5.646;2022-09-09T14:33:40;18.80;99.90
42141;DHT22;27809;51.864;5.646;2022-09-09T14:36:06;19.00;99.90
42141;DHT22;27809;51.864;5.646;2022-09-09T14:38:34;18.80;99.90
42141;DHT22;27809;51.864;5.646;2022-09-09T14:41:04;18.90;99.90
42141;DHT22;27809;51.864;5.646;2022-09-09T14:43:29;18.80;99.90
42141;DHT22;27809;51.864;5.646;2022-09-09T14:46:04;18.80;99.90
42141;DHT22;27809;51.864;5.646;2022-09-09T14:48:30;18.90;99.90
42141;DHT22;27809;51.864;5.646;2022-09-09T14:50:56;18.60;99.90
42141;DHT22;27809;51.864;5.646;2022-09-09T14:53:21;18.60;99.90
42141;DHT22;27809;51.864;5.646;2022-09-09T14:55:47;18.60;99.90
42141;DHT22;27809;51.864;5.646;2022-09-09T14:58:13;18.60;99.90
42141;DHT22;27809;51.864;5.646;2022-09-09T15:00:39;18.60;99.90
42141;DHT22;27809;51.864;5.646;2022-09-09T15:03:04;18.60;99.90
42141;DHT22;27809;51.864;5.646;2022-09-09T15:05:30;18.50;99.90
42141;DHT22;27809;51.864;5.646;2022-09-09T15:07:57;18.40;99.90
42141;DHT22;27809;51.864;5.646;2022-09-09T15:10:24;18.40;99.90
42141;DHT22;27809;51.864;5.646;2022-09-09T15:12:49;18.40;99.90
42141;DHT22;27809;51.864;5.646;2022-09-09T15:15:15;18.50;99.90
42141;DHT22;27809;51.864;5.646;2022-09-09T15:17:40;18.60;99.90
42141;DHT22;27809;51.864;5.646;2022-09-09T15:20:06;18.80;99.90
42141;DHT22;27809;51.864;5.646;2022-09-09T15:22:32;19.20;99.90
42141;DHT22;27809;51.864;5.646;2022-09-09T15:24:59;19.40;99.90
42141;DHT22;27809;51.864;5.646;2022-09-09T15:27:24;19.40;99.90
42141;DHT22;27809;51.864;5.646;2022-09-09T15:29:50;19.40;99.90
42141;DHT22;27809;51.864;5.646;2022-09-09T15:32:17;20.00;99.90
42141;DHT22;27809;51.864;5.646;2022-09-09T15:34:42;19.40;99.90
42141;DHT22;27809;51.864;5.646;2022-09-09T15:37:10;20.30;99.90
42141;DHT22;27809;51.864;5.646;2022-09-09T15:39:38;20.70;99.90
42141;DHT22;27809;51.864;5.646;2022-09-09T15:42:04;20.60;99.90
42141;DHT22;27809;51.864;5.646;2022-09-09T15:44:30;20.30;99.90
42141;DHT22;27809;51.864;5.646;2022-09-09T15:47:03;19.80;99.90
42141;DHT22;27809;51.864;5.646;2022-09-09T15:49:28;20.30;99.90
42141;DHT22;27809;51.864;5.646;2022-09-09T15:51:55;21.20;99.90
42141;DHT22;27809;51.864;5.646;2022-09-09T15:54:24;21.60;99.90
42141;DHT22;27809;51.864;5.646;2022-09-09T15:56:55;21.90;99.90
42141;DHT22;27809;51.864;5.646;2022-09-09T15:59:25;21.60;98.40
42141;DHT22;27809;51.864;5.646;2022-09-09T16:01:52;21.60;99.90
42141;DHT22;27809;51.864;5.646;2022-09-09T16:04:18;21.80;99.90
42141;DHT22;27809;51.864;5.646;2022-09-09T16:06:55;21.20;99.90
42141;DHT22;27809;51.864;5.646;2022-09-09T16:09:22;20.70;99.90
42141;DHT22;27809;51.864;5.646;2022-09-09T16:11:48;20.90;99.90
42141;DHT22;27809;51.864;5.646;2022-09-09T16:14:14;21.10;99.90
42141;DHT22;27809;51.864;5.646;2022-09-09T16:16:41;20.90;99.90
42141;DHT22;27809;51.864;5.646;2022-09-09T16:19:09;20.80;99.90
42141;DHT22;27809;51.864;5.646;2022-09-09T16:21:43;21.10;99.90
42141;DHT22;27809;51.864;5.646;2022-09-09T16:24:11;21.20;99.90
42141;DHT22;27809;51.864;5.646;2022-09-09T16:26:42;21.10;99.90
42141;DHT22;27809;51.864;5.646;2022-09-09T16:29:12;21.10;99.90
42141;DHT22;27809;51.864;5.646;2022-09-09T16:31:39;21.00;99.90
42141;DHT22;27809;51.864;5.646;2022-09-09T16:34:06;20.20;99.90
42141;DHT22;27809;51.864;5.646;2022-09-09T16:36:33;20.80;99.90
42141;DHT22;27809;51.864;5.646;2022-09-09T16:39:02;21.20;99.90
42141;DHT22;27809;51.864;5.646;2022-09-09T16:41:29;21.10;99.90
42141;DHT22;27809;51.864;5.646;2022-09-09T16:43:59;21.00;99.90
42141;DHT22;27809;51.864;5.646;2022-09-09T16:46:26;20.90;99.90
42141;DHT22;27809;51.864;5.646;2022-09-09T16:48:53;20.90;99.90
42141;DHT22;27809;51.864;5.646;2022-09-09T16:53:45;20.30;99.90
42141;DHT22;27809;51.864;5.646;2022-09-09T16:56:14;20.70;99.90
42141;DHT22;27809;51.864;5.646;2022-09-09T16:58:41;20.70;99.90
42141;DHT22;27809;51.864;5.646;2022-09-09T17:01:08;21.00;99.90
42141;DHT22;27809;51.864;5.646;2022-09-09T17:03:35;20.40;99.90
42141;DHT22;27809;51.864;5.646;2022-09-09T17:06:02;20.40;99.90
42141;DHT22;27809;51.864;5.646;2022-09-09T17:08:30;20.90;99.90
42141;DHT22;27809;51.864;5.646;2022-09-09T17:10:57;20.60;99.90
42141;DHT22;27809;51.864;5.646;2022-09-09T17:13:22;20.90;99.90
42141;DHT22;27809;51.864;5.646;2022-09-09T17:15:48;20.90;99.90
42141;DHT22;27809;51.864;5.646;2022-09-09T17:18:14;21.10;98.30
42141;DHT22;27809;51.864;5.646;2022-09-09T17:20:40;20.90;99.20
42141;DHT22;27809;51.864;5.646;2022-09-09T17:23:07;20.30;99.90
42141;DHT22;27809;51.864;5.646;2022-09-09T17:25:33;20.60;99.90
42141;DHT22;27809;51.864;5.646;2022-09-09T17:27:59;20.70;99.90
42141;DHT22;27809;51.864;5.646;2022-09-09T17:30:25;20.60;99.90
42141;DHT22;27809;51.864;5.646;2022-09-09T17:32:51;20.70;99.90
42141;DHT22;27809;51.864;5.646;2022-09-09T17:35:17;20.70;99.70
42141;DHT22;27809;51.864;5.646;2022-09-09T17:37:43;20.60;99.00
42141;DHT22;27809;51.864;5.646;2022-09-09T17:40:09;20.70;99.70
42141;DHT22;27809;51.864;5.646;2022-09-09T17:42:35;20.60;99.60
42141;DHT22;27809;51.864;5.646;2022-09-09T17:45:00;20.40;99.90
42141;DHT22;27809;51.864;5.646;2022-09-09T17:47:26;20.20;99.90
42141;DHT22;27809;51.864;5.646;2022-09-09T17:49:53;20.60;99.90
42141;DHT22;27809;51.864;5.646;2022-09-09T17:52:19;20.20;99.90
42141;DHT22;27809;51.864;5.646;2022-09-09T17:54:44;20.70;99.90
42141;DHT22;27809;51.864;5.646;2022-09-09T17:57:10;20.60;99.90